createdAt,value
2023-03-16T00:01:08.746Z,25.75
2023-03-16T00:05:08.743Z,25.73
2023-03-16T00:09:08.681Z,25.69
2023-03-16T00:13:08.645Z,25.65
2023-03-16T00:17:08.618Z,25.62
2023-03-16T00:21:08.623Z,25.63
2023-03-16T00:25:09.464Z,25.68
2023-03-16T00:29:08.479Z,25.67
2023-03-16T00:33:08.576Z,25.66
2023-03-16T00:37:08.514Z,25.71
2023-03-16T00:41:08.370Z,25.74
2023-03-16T00:45:08.307Z,25.76
2023-03-16T00:49:08.587Z,25.71
2023-03-16T00:53:08.401Z,25.74
2023-03-16T00:57:08.527Z,25.74
2023-03-16T01:01:08.765Z,25.78
2023-03-16T01:05:08.922Z,25.75
2023-03-16T01:09:09.028Z,25.78
2023-03-16T01:13:09.234Z,25.84
2023-03-16T01:17:09.397Z,25.76
2023-03-16T01:21:09.509Z,25.75
2023-03-16T01:25:09.662Z,25.76
2023-03-16T01:29:09.858Z,25.72
2023-03-16T01:33:09.958Z,25.77
2023-03-16T01:37:10.176Z,25.76
2023-03-16T01:41:10.312Z,25.83
2023-03-16T01:45:10.442Z,25.84
2023-03-16T01:49:10.618Z,25.88
2023-03-16T01:53:10.816Z,25.88
2023-03-16T01:57:10.971Z,25.90
2023-03-16T02:01:11.096Z,25.94
2023-03-16T02:05:11.332Z,25.96
2023-03-16T02:09:11.503Z,26.00
2023-03-16T02:13:11.677Z,26.01
2023-03-16T02:17:11.872Z,26.06
2023-03-16T02:21:12.137Z,26.08
2023-03-16T02:25:12.303Z,26.10
2023-03-16T02:29:12.613Z,26.12
2023-03-16T02:33:12.894Z,26.14
2023-03-16T02:37:12.953Z,26.17
2023-03-16T02:41:15.028Z,26.19
2023-03-16T02:45:13.399Z,26.20
2023-03-16T02:49:13.389Z,26.23
2023-03-16T02:53:13.330Z,26.22
2023-03-16T02:57:13.520Z,26.26
2023-03-16T03:01:13.288Z,26.27
2023-03-16T03:05:13.201Z,26.30
2023-03-16T03:09:13.180Z,26.31
2023-03-16T03:13:13.113Z,26.31
2023-03-16T03:17:13.081Z,26.34
2023-03-16T03:21:13.191Z,26.34
2023-03-16T03:25:13.134Z,26.35
2023-03-16T03:29:13.127Z,26.37
2023-03-16T03:33:13.122Z,26.38
2023-03-16T03:37:13.519Z,26.40
2023-03-16T03:41:13.048Z,26.41
2023-03-16T03:45:13.076Z,26.41
2023-03-16T03:49:12.924Z,26.41
2023-03-16T03:53:12.925Z,26.42
2023-03-16T03:57:12.824Z,26.44
2023-03-16T04:01:12.892Z,26.46
2023-03-16T04:05:13.052Z,26.47
2023-03-16T04:09:12.772Z,26.51
2023-03-16T04:13:12.904Z,26.52
2023-03-16T04:17:12.864Z,26.24
2023-03-16T04:21:12.837Z,26.02
2023-03-16T04:25:12.814Z,25.85
2023-03-16T04:29:12.891Z,25.68
2023-03-16T04:33:12.758Z,25.57
2023-03-16T04:37:12.732Z,25.48
2023-03-16T04:41:12.684Z,25.43
2023-03-16T04:45:12.626Z,25.38
2023-03-16T04:49:12.591Z,25.33
2023-03-16T04:53:12.530Z,25.35
2023-03-16T04:57:12.476Z,25.31
2023-03-16T05:01:12.501Z,25.30
2023-03-16T05:05:12.574Z,25.27
2023-03-16T05:09:12.402Z,25.30
2023-03-16T05:13:12.477Z,25.25
2023-03-16T05:17:12.560Z,25.23
2023-03-16T05:21:12.786Z,25.25
2023-03-16T05:25:12.817Z,25.25
2023-03-16T05:29:12.927Z,25.24
2023-03-16T05:33:13.093Z,25.22
2023-03-16T05:37:13.167Z,25.23
2023-03-16T05:41:13.570Z,25.31
2023-03-16T05:45:13.386Z,25.26
2023-03-16T05:49:13.468Z,25.23
2023-03-16T05:53:13.589Z,25.32
2023-03-16T05:57:13.722Z,25.37
2023-03-16T06:01:13.780Z,25.34
2023-03-16T06:05:13.918Z,25.42
2023-03-16T06:09:14.050Z,25.38
2023-03-16T06:13:14.268Z,25.35
2023-03-16T06:17:14.344Z,25.34
2023-03-16T06:21:14.497Z,25.35
2023-03-16T06:25:14.639Z,25.32
2023-03-16T06:29:14.924Z,25.32
2023-03-16T06:33:15.111Z,25.59
2023-03-16T06:37:17.063Z,28.48
2023-03-16T06:41:15.066Z,27.98
2023-03-16T06:45:15.147Z,27.99
2023-03-16T06:49:15.097Z,27.98
2023-03-16T06:53:15.332Z,27.60
2023-03-16T06:57:15.385Z,27.45
2023-03-16T07:01:15.684Z,27.33
2023-03-16T07:05:15.128Z,27.23
2023-03-16T07:09:15.163Z,27.12
2023-03-16T07:13:15.164Z,27.02
2023-03-16T07:17:15.295Z,26.92
2023-03-16T07:21:15.658Z,26.82
2023-03-16T07:25:15.687Z,26.72
2023-03-16T07:29:15.675Z,26.62
2023-03-16T07:33:15.820Z,26.55
2023-03-16T07:37:17.110Z,26.45
2023-03-16T07:41:16.160Z,26.37
2023-03-16T07:45:16.649Z,26.27
2023-03-16T07:49:16.518Z,26.19
2023-03-16T07:53:16.495Z,26.12
2023-03-16T07:57:16.479Z,26.08
2023-03-16T08:01:16.394Z,26.01
2023-03-16T08:05:16.346Z,25.97
2023-03-16T08:09:16.268Z,25.90
2023-03-16T08:13:16.464Z,25.86
2023-03-16T08:17:16.235Z,25.78
2023-03-16T08:21:16.647Z,25.75
2023-03-16T08:25:16.184Z,25.67
2023-03-16T08:29:16.281Z,26.04
2023-03-16T08:33:20.247Z,26.26
2023-03-16T08:37:16.237Z,26.76
2023-03-16T08:41:16.043Z,26.03
2023-03-16T08:45:16.172Z,25.56
2023-03-16T08:49:15.947Z,25.16
2023-03-16T08:53:15.918Z,24.81
2023-03-16T08:57:15.881Z,24.57
2023-03-16T09:01:17.210Z,24.42
2023-03-16T09:05:16.199Z,24.18
2023-03-16T09:09:15.770Z,24.17
2023-03-16T09:13:15.772Z,24.02
2023-03-16T09:17:15.809Z,24.09
2023-03-16T09:21:16.132Z,23.85
2023-03-16T09:25:15.727Z,23.61
2023-03-16T09:29:15.637Z,23.42
2023-03-16T09:33:16.121Z,23.36
2023-03-16T09:37:15.625Z,23.32
2023-03-16T09:41:15.555Z,23.20
2023-03-16T09:45:15.595Z,23.65
2023-03-16T09:49:15.477Z,25.38
2023-03-16T09:53:15.676Z,24.97
2023-03-16T09:57:15.907Z,24.13
2023-03-16T10:01:16.431Z,24.37
2023-03-16T10:05:15.946Z,24.31
2023-03-16T10:09:16.092Z,24.16
2023-03-16T10:13:16.372Z,24.06
2023-03-16T10:17:16.351Z,23.79
2023-03-16T10:21:16.550Z,23.66
2023-03-16T10:25:16.704Z,23.78
2023-03-16T10:29:16.869Z,23.60
2023-03-16T10:33:18.281Z,24.16
2023-03-16T10:37:17.191Z,24.12
2023-03-16T10:41:17.818Z,25.58
2023-03-16T10:45:17.478Z,24.58
2023-03-16T10:49:17.243Z,23.88
2023-03-16T10:53:17.266Z,22.50
2023-03-16T10:57:17.249Z,21.93
2023-03-16T11:01:17.206Z,21.91
2023-03-16T11:05:17.250Z,21.54
2023-03-16T11:09:17.140Z,21.19
2023-03-16T11:13:17.060Z,21.37
2023-03-16T11:17:17.063Z,21.77
2023-03-16T11:21:16.961Z,22.61
2023-03-16T11:25:17.058Z,21.09
2023-03-16T11:29:16.933Z,22.15
2023-03-16T11:33:17.092Z,23.52
2023-03-16T11:37:17.353Z,23.20
2023-03-16T11:41:18.220Z,22.49
2023-03-16T11:45:28.538Z,23.93
2023-03-16T11:49:17.658Z,22.43
2023-03-16T11:53:17.477Z,22.45
2023-03-16T11:57:17.659Z,22.20
2023-03-16T12:01:17.722Z,21.42
2023-03-16T12:05:17.749Z,22.24
2023-03-16T12:09:17.708Z,22.65
2023-03-16T12:13:17.679Z,23.33
2023-03-16T12:17:17.780Z,23.35
2023-03-16T12:21:19.824Z,22.48
2023-03-16T12:25:19.222Z,22.29
2023-03-16T12:29:17.829Z,22.23
2023-03-16T12:33:17.994Z,22.36
2023-03-16T12:37:17.912Z,22.09
2023-03-16T12:41:18.290Z,22.17
2023-03-16T12:45:17.958Z,22.03
2023-03-16T12:49:17.978Z,21.78
2023-03-16T12:53:17.956Z,21.82
2023-03-16T12:57:18.705Z,21.70
2023-03-16T13:01:18.054Z,21.72
2023-03-16T13:05:18.076Z,21.64
2023-03-16T13:09:18.108Z,21.54
2023-03-16T13:13:18.137Z,21.42
2023-03-16T13:17:18.251Z,21.46
2023-03-16T13:21:18.242Z,21.48
2023-03-16T13:25:18.190Z,21.45
2023-03-16T13:29:18.212Z,21.28
2023-03-16T13:33:18.287Z,21.31
2023-03-16T13:37:18.234Z,21.13
2023-03-16T13:41:18.225Z,21.01
2023-03-16T13:45:18.269Z,21.13
2023-03-16T13:49:18.342Z,21.05
2023-03-16T13:53:18.352Z,20.98
2023-03-16T13:57:18.389Z,20.96
2023-03-16T14:01:18.456Z,20.85
2023-03-16T14:05:18.435Z,20.88
2023-03-16T14:09:19.367Z,20.90
2023-03-16T14:13:18.575Z,20.81
2023-03-16T14:17:18.701Z,20.78
2023-03-16T14:21:18.727Z,20.68
2023-03-16T14:25:18.805Z,20.67
2023-03-16T14:29:18.985Z,20.48
2023-03-16T14:33:18.990Z,20.55
2023-03-16T14:37:19.142Z,20.57
2023-03-16T14:41:19.311Z,20.44
2023-03-16T14:45:19.422Z,20.49
2023-03-16T14:49:19.600Z,20.56
2023-03-16T14:53:19.839Z,20.60
2023-03-16T14:57:20.080Z,20.55
2023-03-16T15:01:20.337Z,20.51
2023-03-16T15:05:20.204Z,20.44
2023-03-16T15:09:20.193Z,20.17
2023-03-16T15:13:20.170Z,19.93
2023-03-16T15:17:20.092Z,19.60
2023-03-16T15:21:20.057Z,19.62
2023-03-16T15:25:21.269Z,19.50
2023-03-16T15:29:20.056Z,19.54
2023-03-16T15:33:19.973Z,19.39
2023-03-16T15:37:19.911Z,19.35
2023-03-16T15:41:19.950Z,19.37
2023-03-16T15:45:19.890Z,19.29
2023-03-16T15:49:19.800Z,19.17
2023-03-16T15:53:29.836Z,19.05
2023-03-16T15:57:20.731Z,18.92
2023-03-16T16:01:19.744Z,19.80
2023-03-16T16:05:19.656Z,19.53
2023-03-16T16:09:19.616Z,20.11
2023-03-16T16:13:19.697Z,20.04
2023-03-16T16:17:21.182Z,20.12
2023-03-16T16:21:19.623Z,20.22
2023-03-16T16:25:19.510Z,20.21
2023-03-16T16:29:22.399Z,20.30
2023-03-16T16:33:19.416Z,20.38
2023-03-16T16:37:19.835Z,20.50
2023-03-16T16:41:19.900Z,20.56
2023-03-16T16:45:19.309Z,20.67
2023-03-16T16:49:19.345Z,20.74
2023-03-16T16:53:19.231Z,20.85
2023-03-16T16:57:19.212Z,20.93
2023-03-16T17:01:19.277Z,21.07
2023-03-16T17:05:19.845Z,21.14
2023-03-16T17:09:19.117Z,21.11
2023-03-16T17:13:19.360Z,21.17
2023-03-16T17:17:18.996Z,21.18
2023-03-16T17:21:18.926Z,21.23
2023-03-16T17:25:18.888Z,21.21
2023-03-16T17:29:18.870Z,21.26
2023-03-16T17:33:19.064Z,21.15
2023-03-16T17:37:19.336Z,21.29
2023-03-16T17:41:19.515Z,21.29
2023-03-16T17:45:19.793Z,21.33
2023-03-16T17:49:19.658Z,21.32
2023-03-16T17:53:19.646Z,21.40
2023-03-16T17:57:19.611Z,21.40
2023-03-16T18:01:20.448Z,21.45
2023-03-16T18:05:19.616Z,21.42
2023-03-16T18:09:19.524Z,21.28
2023-03-16T18:13:19.449Z,21.35
2023-03-16T18:17:19.419Z,21.30
2023-03-16T18:21:22.364Z,21.39
2023-03-16T18:25:19.337Z,21.34
2023-03-16T18:29:19.273Z,21.40
2023-03-16T18:33:19.265Z,21.30
2023-03-16T18:37:19.244Z,21.44
2023-03-16T18:41:19.263Z,21.43
2023-03-16T18:45:19.188Z,21.28
2023-03-16T18:49:19.155Z,21.44
2023-03-16T18:53:19.126Z,21.44
2023-03-16T18:57:19.043Z,21.43
2023-03-16T19:01:19.019Z,21.38
2023-03-16T19:05:19.055Z,21.45
2023-03-16T19:09:18.956Z,21.37
2023-03-16T19:13:18.918Z,21.31
2023-03-16T19:17:18.895Z,21.25
2023-03-16T19:21:18.866Z,21.20
2023-03-16T19:25:18.787Z,21.43
2023-03-16T19:29:18.813Z,21.40
2023-03-16T19:33:18.734Z,21.50
2023-03-16T19:37:18.728Z,21.45
2023-03-16T19:41:18.670Z,21.62
2023-03-16T19:45:18.596Z,21.64
2023-03-16T19:49:18.567Z,21.72
2023-03-16T19:53:18.547Z,21.77
2023-03-16T19:57:18.535Z,21.78
2023-03-16T20:01:18.546Z,21.87
2023-03-16T20:05:18.433Z,21.91
2023-03-16T20:09:18.425Z,21.93
2023-03-16T20:13:18.359Z,22.02
2023-03-16T20:17:18.326Z,22.09
2023-03-16T20:21:18.423Z,22.17
2023-03-16T20:25:18.328Z,22.23
2023-03-16T20:29:18.252Z,22.30
2023-03-16T20:33:18.170Z,22.32
2023-03-16T20:37:18.130Z,22.35
2023-03-16T20:41:18.094Z,22.40
2023-03-16T20:45:18.136Z,22.44
2023-03-16T20:49:18.041Z,22.48
2023-03-16T20:53:18.026Z,22.53
2023-03-16T20:57:17.990Z,22.56
2023-03-16T21:01:18.969Z,22.60
2023-03-16T21:05:17.981Z,22.61
2023-03-16T21:09:17.899Z,22.66
2023-03-16T21:13:17.870Z,22.67
2023-03-16T21:17:18.456Z,22.71
2023-03-16T21:21:17.713Z,22.72
2023-03-16T21:25:17.693Z,22.76
2023-03-16T21:30:32.984Z,22.80
2023-03-16T21:34:32.947Z,22.82
2023-03-16T21:38:32.930Z,22.84
2023-03-16T21:42:32.882Z,22.85
2023-03-16T21:46:32.832Z,22.90
2023-03-16T21:50:32.736Z,22.90
2023-03-16T21:54:32.707Z,22.91
2023-03-16T21:58:32.743Z,22.94
2023-03-16T22:02:32.832Z,22.93
2023-03-16T22:06:32.605Z,22.97
2023-03-16T22:10:32.597Z,22.99
2023-03-16T22:14:32.583Z,23.01
2023-03-16T22:18:32.494Z,23.05
2023-03-16T22:22:32.779Z,23.03
2023-03-16T22:26:32.457Z,23.04
2023-03-16T22:30:34.208Z,23.07
2023-03-16T22:34:32.442Z,23.09
2023-03-16T22:38:32.321Z,23.12
2023-03-16T22:42:32.291Z,23.14
2023-03-16T22:46:32.281Z,23.15
2023-03-16T22:50:32.248Z,23.16
2023-03-16T22:54:32.199Z,23.18
2023-03-16T22:58:32.236Z,23.19
2023-03-16T23:02:32.215Z,23.21
2023-03-16T23:06:32.088Z,23.23
2023-03-16T23:10:32.030Z,23.23
2023-03-16T23:14:32.035Z,23.26
2023-03-16T23:18:32.002Z,23.26
2023-03-16T23:22:32.687Z,23.28
2023-03-16T23:26:32.021Z,23.31
2023-03-16T23:30:32.535Z,23.33
2023-03-16T23:34:31.998Z,23.32
2023-03-16T23:38:31.959Z,23.33
2023-03-16T23:42:31.943Z,23.36
2023-03-16T23:46:32.058Z,23.35
2023-03-16T23:50:32.115Z,23.38
2023-03-16T23:54:31.998Z,23.36
2023-03-16T23:58:31.961Z,23.38
